Time;durP1;ratioP1;P1;durP2;ratioP2;P2;SDS_P1;SDS_P2;PMS_P1;PMS_P2;Temp;Humidity;BMP_temperature;BMP_pressure;BME280_temperature;BME280_humidity;BME280_pressure;Samples;Min_cycle;Max_cycle;Signal;HPM_P1;HPM_P2
2023/01/12 00:01:09;;;;;;;2.20;0.68;;;;;;;;;;5063169;28;20035;-43
2023/01/12 00:03:35;;;;;;;1.52;0.70;;;;;;;;;;5061568;28;20036;-43
2023/01/12 00:06:06;;;;;;;2.15;0.90;;;;;;;;;;5063091;28;20032;-43
2023/01/12 00:08:32;;;;;;;3.70;1.25;;;;;;;;;;5057750;28;20017;-43
2023/01/12 00:10:58;;;;;;;1.42;0.57;;;;;;;;;;5055711;28;20025;-45
2023/01/12 00:13:24;;;;;;;1.95;0.90;;;;;;;;;;5059213;28;20523;-44
2023/01/12 00:18:35;;;;;;;2.30;0.70;;;;;;;;;;5053881;28;20108;-44
2023/01/12 00:21:01;;;;;;;0.70;0.50;;;;;;;;;;5053196;28;20524;-44
2023/01/12 00:23:28;;;;;;;1.48;0.70;;;;;;;;;;5059785;28;20033;-44
2023/01/12 00:25:54;;;;;;;0.73;0.60;;;;;;;;;;5065574;28;20672;-43
2023/01/12 00:28:20;;;;;;;1.52;0.60;;;;;;;;;;5059493;28;20025;-44
2023/01/12 00:30:46;;;;;;;2.20;1.15;;;;;;;;;;5060332;28;20047;-43
2023/01/12 00:33:13;;;;;;;1.20;0.60;;;;;;;;;;5054567;28;20033;-42
2023/01/12 00:35:39;;;;;;;0.82;0.60;;;;;;;;;;5042501;28;20036;-43
2023/01/12 00:38:05;;;;;;;0.82;0.52;;;;;;;;;;5056752;28;20021;-44
2023/01/12 00:40:31;;;;;;;1.13;0.60;;;;;;;;;;5067255;28;20033;-43
2023/01/12 00:45:42;;;;;;;1.08;0.50;;;;;;;;;;5054281;28;20040;-44
2023/01/12 00:48:11;;;;;;;3.25;0.95;;;;;;;;;;5051377;28;20025;-44
2023/01/12 00:50:37;;;;;;;1.65;0.60;;;;;;;;;;5059290;28;20025;-43
2023/01/12 00:53:03;;;;;;;1.20;0.70;;;;;;;;;;5056335;28;20142;-42
2023/01/12 00:55:29;;;;;;;2.20;0.82;;;;;;;;;;5057569;28;20096;-44
2023/01/12 00:57:56;;;;;;;0.68;0.63;;;;;;;;;;5060371;28;20043;-43
2023/01/12 01:00:22;;;;;;;1.00;0.68;;;;;;;;;;5064574;28;20021;-44
2023/01/12 01:02:48;;;;;;;1.17;0.50;;;;;;;;;;5061148;28;20029;-43
2023/01/12 01:05:14;;;;;;;2.20;0.75;;;;;;;;;;5067513;28;20427;-44
2023/01/12 01:07:40;;;;;;;0.88;0.47;;;;;;;;;;5064774;28;20571;-43
2023/01/12 01:10:07;;;;;;;2.63;0.65;;;;;;;;;;5055854;28;20094;-42
2023/01/12 01:12:33;;;;;;;1.70;0.60;;;;;;;;;;5063357;28;20039;-43
2023/01/12 01:14:59;;;;;;;1.65;0.80;;;;;;;;;;5055191;28;20041;-47
2023/01/12 01:17:24;;;;;;;1.60;1.00;;;;;;;;;;5057826;28;20029;-43
2023/01/12 01:19:50;;;;;;;1.15;0.68;;;;;;;;;;5062597;28;20032;-42
2023/01/12 01:22:16;;;;;;;2.13;0.80;;;;;;;;;;5062182;28;20025;-43
2023/01/12 01:24:42;;;;;;;1.73;0.60;;;;;;;;;;5063857;28;20059;-42
2023/01/12 01:27:08;;;;;;;2.10;0.50;;;;;;;;;;5064056;28;20410;-42
2023/01/12 01:29:34;;;;;;;2.60;0.73;;;;;;;;;;5069378;28;20028;-43
2023/01/12 01:32:00;;;;;;;1.75;1.13;;;;;;;;;;5063980;28;20102;-44
2023/01/12 01:34:26;;;;;;;1.23;0.70;;;;;;;;;;5057764;28;20055;-43
2023/01/12 01:36:52;;;;;;;1.80;0.55;;;;;;;;;;5058453;28;20021;-42
2023/01/12 01:39:18;;;;;;;3.05;0.80;;;;;;;;;;5061358;28;20050;-43
2023/01/12 01:41:44;;;;;;;1.98;0.45;;;;;;;;;;5062910;28;20032;-43
2023/01/12 01:44:28;;;;;;;1.63;0.85;;;;;;;;;;5063855;28;20036;-43
2023/01/12 01:46:57;;;;;;;1.48;0.75;;;;;;;;;;5058060;28;20021;-42
2023/01/12 01:49:23;;;;;;;2.95;0.80;;;;;;;;;;5063016;28;20381;-42
2023/01/12 01:51:50;;;;;;;2.28;0.57;;;;;;;;;;5069419;28;20021;-43
2023/01/12 01:54:16;;;;;;;2.58;0.60;;;;;;;;;;5054072;28;20377;-45
2023/01/12 01:56:42;;;;;;;0.63;0.30;;;;;;;;;;5060891;28;20512;-43
2023/01/12 01:59:16;;;;;;;2.28;0.90;;;;;;;;;;5055068;28;20075;-46
2023/01/12 02:01:42;;;;;;;1.25;0.50;;;;;;;;;;5064307;28;20100;-42
2023/01/12 02:04:09;;;;;;;0.88;0.50;;;;;;;;;;5064859;28;20496;-42
2023/01/12 02:06:35;;;;;;;1.73;0.63;;;;;;;;;;5067075;28;20082;-43
2023/01/12 02:09:13;;;;;;;1.73;0.68;;;;;;;;;;5063510;28;20043;-44
2023/01/12 02:17:24;;;;;;;1.10;0.45;;;;;;;;;;5054738;28;20059;-42
2023/01/12 02:19:52;;;;;;;1.92;0.80;;;;;;;;;;5059281;28;20028;-44
2023/01/12 02:22:37;;;;;;;1.13;0.50;;;;;;;;;;5069651;28;20048;-42
2023/01/12 02:25:22;;;;;;;1.95;0.88;;;;;;;;;;5061938;28;20036;-43
2023/01/12 02:28:06;;;;;;;2.97;0.88;;;;;;;;;;5058323;28;20051;-43
2023/01/12 02:30:38;;;;;;;2.70;0.70;;;;;;;;;;5055530;28;20031;-43
2023/01/12 02:33:23;;;;;;;1.45;0.60;;;;;;;;;;5067564;28;20032;-43
2023/01/12 02:35:56;;;;;;;1.75;0.73;;;;;;;;;;5060504;28;20059;-43
2023/01/12 02:38:42;;;;;;;1.48;0.60;;;;;;;;;;5067959;28;20090;-44
2023/01/12 02:42:39;;;;;;;1.63;0.60;;;;;;;;;;5012223;28;20068;-43
2023/01/12 02:44:15;;;;;;;1.47;0.60;;;;;;;;;;5062949;28;20049;-43
2023/01/12 02:46:44;;;;;;;2.17;1.05;;;;;;;;;;5053180;28;20028;-45
2023/01/12 02:49:13;;;;;;;1.35;0.63;;;;;;;;;;5063673;28;20380;-42
2023/01/12 02:51:47;;;;;;;1.15;0.77;;;;;;;;;;5059581;28;20021;-43
2023/01/12 02:54:15;;;;;;;1.02;0.38;;;;;;;;;;5053688;28;20354;-44
2023/01/12 02:56:44;;;;;;;11.32;1.23;;;;;;;;;;5061627;28;20036;-42
2023/01/12 02:59:13;;;;;;;4.22;0.70;;;;;;;;;;5053559;28;20420;-42
2023/01/12 03:01:40;;;;;;;2.88;0.98;;;;;;;;;;5056718;28;20104;-42
2023/01/12 03:04:08;;;;;;;1.75;0.50;;;;;;;;;;5058814;28;20028;-42
2023/01/12 03:06:40;;;;;;;3.55;0.77;;;;;;;;;;5056054;28;20469;-43
2023/01/12 03:09:07;;;;;;;1.15;0.60;;;;;;;;;;5062884;28;20395;-42
2023/01/12 03:11:34;;;;;;;2.35;0.93;;;;;;;;;;5063289;28;20109;-43
2023/01/12 03:14:01;;;;;;;4.53;1.27;;;;;;;;;;5057794;28;20037;-43
2023/01/12 03:16:29;;;;;;;4.85;1.13;;;;;;;;;;5053931;28;20489;-42
2023/01/12 03:19:00;;;;;;;2.75;1.05;;;;;;;;;;5060139;28;20027;-42
2023/01/12 03:21:32;;;;;;;1.65;0.70;;;;;;;;;;5059949;28;20114;-44
2023/01/12 03:23:58;;;;;;;4.53;0.77;;;;;;;;;;5057362;28;20143;-43
2023/01/12 03:26:26;;;;;;;3.22;1.00;;;;;;;;;;5064930;28;20475;-43
2023/01/12 03:28:55;;;;;;;1.25;0.80;;;;;;;;;;5064005;28;20214;-42
2023/01/12 03:31:22;;;;;;;1.65;0.50;;;;;;;;;;5058270;28;20346;-43
2023/01/12 03:33:48;;;;;;;1.55;0.40;;;;;;;;;;5048963;28;20056;-42
2023/01/12 03:36:19;;;;;;;1.63;0.55;;;;;;;;;;5047196;28;20056;-42
2023/01/12 03:38:49;;;;;;;1.52;0.50;;;;;;;;;;5047586;28;20025;-43
2023/01/12 03:41:44;;;;;;;1.30;0.55;;;;;;;;;;5049014;28;20021;-43
2023/01/12 03:44:13;;;;;;;2.17;0.77;;;;;;;;;;5036237;28;20085;-43
2023/01/12 03:46:42;;;;;;;1.65;0.63;;;;;;;;;;5032288;28;20035;-43
2023/01/12 03:49:19;;;;;;;1.08;0.50;;;;;;;;;;5051140;28;20051;-43
2023/01/12 03:51:47;;;;;;;2.38;0.82;;;;;;;;;;5047668;28;20141;-43
2023/01/12 03:54:13;;;;;;;1.40;0.68;;;;;;;;;;5045114;28;20473;-43
2023/01/12 03:56:40;;;;;;;2.05;0.60;;;;;;;;;;5047882;28;20024;-42
2023/01/12 03:59:08;;;;;;;2.67;0.55;;;;;;;;;;5051971;28;20033;-43
2023/01/12 04:01:34;;;;;;;3.95;0.60;;;;;;;;;;5053126;28;20028;-43
2023/01/12 04:04:00;;;;;;;2.33;0.93;;;;;;;;;;5048867;28;20039;-43
2023/01/12 04:06:26;;;;;;;1.75;0.70;;;;;;;;;;5051238;28;20104;-43
2023/01/12 04:08:52;;;;;;;1.92;0.65;;;;;;;;;;5046400;28;20035;-43
2023/01/12 04:14:03;;;;;;;1.45;0.50;;;;;;;;;;5045225;28;20091;-44
2023/01/12 04:16:29;;;;;;;2.17;0.60;;;;;;;;;;5049464;28;20033;-43
2023/01/12 04:18:55;;;;;;;1.42;0.60;;;;;;;;;;5049487;28;20135;-43
2023/01/12 04:24:05;;;;;;;1.50;0.63;;;;;;;;;;5049525;28;20044;-42
2023/01/12 04:26:31;;;;;;;2.75;0.70;;;;;;;;;;5050901;28;20091;-43
2023/01/12 04:28:57;;;;;;;3.53;1.02;;;;;;;;;;5051538;28;20021;-42
2023/01/12 04:31:23;;;;;;;2.42;0.60;;;;;;;;;;5046124;28;20480;-43
2023/01/12 04:33:49;;;;;;;2.75;0.50;;;;;;;;;;5046149;28;20029;-42
2023/01/12 04:36:15;;;;;;;3.40;0.82;;;;;;;;;;5042373;28;20017;-43
2023/01/12 04:38:41;;;;;;;2.00;0.60;;;;;;;;;;5048702;28;20385;-42
2023/01/12 04:41:08;;;;;;;2.72;0.60;;;;;;;;;;5059614;28;20020;-43
2023/01/12 04:43:34;;;;;;;1.65;0.43;;;;;;;;;;5058175;28;20149;-44
2023/01/12 04:46:05;;;;;;;3.00;1.58;;;;;;;;;;5055157;28;20029;-43
2023/01/12 04:48:31;;;;;;;1.60;0.60;;;;;;;;;;5060076;28;20362;-43
2023/01/12 04:50:58;;;;;;;1.15;0.52;;;;;;;;;;5054468;28;20028;-42
2023/01/12 04:53:25;;;;;;;1.73;0.60;;;;;;;;;;5059406;28;20029;-42
2023/01/12 04:55:51;;;;;;;1.63;0.50;;;;;;;;;;5056969;28;20029;-43
2023/01/12 04:58:17;;;;;;;1.65;0.70;;;;;;;;;;5055322;28;20035;-44
2023/01/12 05:00:43;;;;;;;1.55;0.73;;;;;;;;;;5058725;28;20029;-43
2023/01/12 05:03:12;;;;;;;1.33;0.57;;;;;;;;;;5061405;28;22305;-42
2023/01/12 05:05:38;;;;;;;1.48;0.63;;;;;;;;;;5059748;28;20024;-43
2023/01/12 05:10:51;;;;;;;2.53;0.70;;;;;;;;;;5055728;28;20060;-42
2023/01/12 05:13:17;;;;;;;1.77;0.60;;;;;;;;;;5050402;28;20148;-42
2023/01/12 05:15:43;;;;;;;2.08;0.60;;;;;;;;;;5050785;28;20167;-42
2023/01/12 05:18:09;;;;;;;1.95;0.70;;;;;;;;;;5062073;28;20036;-43
2023/01/12 05:20:35;;;;;;;1.55;0.50;;;;;;;;;;5052250;28;20393;-43
2023/01/12 05:23:01;;;;;;;2.95;0.80;;;;;;;;;;5057209;28;20488;-44
2023/01/12 05:25:28;;;;;;;1.50;0.65;;;;;;;;;;5060200;28;20029;-43
2023/01/12 05:27:56;;;;;;;1.80;1.10;;;;;;;;;;5060060;28;20021;-45
2023/01/12 05:30:22;;;;;;;2.30;0.82;;;;;;;;;;5066323;28;20019;-43
2023/01/12 05:32:48;;;;;;;2.90;0.75;;;;;;;;;;5059605;28;20033;-42
2023/01/12 05:35:14;;;;;;;3.22;0.88;;;;;;;;;;5058800;28;20021;-43
2023/01/12 05:37:40;;;;;;;1.65;0.60;;;;;;;;;;5039936;28;20029;-44
2023/01/12 05:40:06;;;;;;;2.58;0.60;;;;;;;;;;5059408;28;20053;-43
2023/01/12 05:45:17;;;;;;;2.42;0.60;;;;;;;;;;5050567;28;20039;-43
2023/01/12 05:47:43;;;;;;;0.82;0.50;;;;;;;;;;5057573;28;20381;-43
2023/01/12 05:50:09;;;;;;;2.95;0.50;;;;;;;;;;5056529;28;20044;-43
2023/01/12 05:52:35;;;;;;;1.33;0.60;;;;;;;;;;5062479;28;20531;-43
2023/01/12 05:55:01;;;;;;;4.45;1.25;;;;;;;;;;5058108;28;20380;-42
2023/01/12 05:57:30;;;;;;;0.90;0.70;;;;;;;;;;5063527;28;20024;-43
2023/01/12 05:59:57;;;;;;;2.13;0.98;;;;;;;;;;5064727;28;20091;-41
2023/01/12 06:02:22;;;;;;;1.65;0.70;;;;;;;;;;5051672;28;20021;-43
2023/01/12 06:04:48;;;;;;;1.17;0.68;;;;;;;;;;5049980;28;20044;-42
2023/01/12 06:07:15;;;;;;;3.53;0.80;;;;;;;;;;5047147;28;20481;-44
2023/01/12 06:09:41;;;;;;;2.45;1.52;;;;;;;;;;5051320;28;20060;-42
2023/01/12 06:14:56;;;;;;;2.22;0.55;;;;;;;;;;5048502;28;20543;-43
2023/01/12 06:17:22;;;;;;;3.78;1.63;;;;;;;;;;5048776;28;20040;-42
2023/01/12 06:19:48;;;;;;;2.92;0.60;;;;;;;;;;5049757;28;20025;-41
2023/01/12 06:22:14;;;;;;;2.42;0.60;;;;;;;;;;5051515;28;20028;-44
2023/01/12 06:24:40;;;;;;;3.10;0.65;;;;;;;;;;5051585;28;20029;-44
2023/01/12 06:27:06;;;;;;;4.47;1.25;;;;;;;;;;5052107;28;20107;-43
2023/01/12 06:29:32;;;;;;;2.83;0.88;;;;;;;;;;5050466;28;20028;-43
2023/01/12 06:31:58;;;;;;;2.75;0.75;;;;;;;;;;5053799;28;20017;-44
2023/01/12 06:34:24;;;;;;;1.65;0.60;;;;;;;;;;5060389;28;20104;-44
2023/01/12 06:36:50;;;;;;;2.42;0.90;;;;;;;;;;5058333;28;20028;-43
2023/01/12 06:39:16;;;;;;;2.42;1.00;;;;;;;;;;5060343;28;20066;-43
2023/01/12 06:44:26;;;;;;;2.30;0.75;;;;;;;;;;5059353;28;20032;-41
2023/01/12 06:46:52;;;;;;;3.60;0.85;;;;;;;;;;5052380;28;20029;-43
2023/01/12 06:49:18;;;;;;;2.78;0.70;;;;;;;;;;5061191;28;20461;-43
2023/01/12 06:51:46;;;;;;;2.97;0.60;;;;;;;;;;5053081;28;20428;-42
2023/01/12 06:54:12;;;;;;;5.78;0.93;;;;;;;;;;5058653;28;20029;-43
2023/01/12 06:56:38;;;;;;;3.97;0.90;;;;;;;;;;5060223;28;20109;-43
2023/01/12 06:59:04;;;;;;;3.80;0.82;;;;;;;;;;5065307;28;20025;-44
2023/01/12 07:01:30;;;;;;;1.77;0.70;;;;;;;;;;5060549;28;20397;-43
2023/01/12 07:03:56;;;;;;;2.47;0.85;;;;;;;;;;5061939;28;20103;-44
2023/01/12 07:06:22;;;;;;;5.10;1.13;;;;;;;;;;5053575;28;20028;-43
2023/01/12 07:08:48;;;;;;;3.65;0.95;;;;;;;;;;5062786;28;20423;-43
2023/01/12 07:11:15;;;;;;;6.47;1.02;;;;;;;;;;5063663;28;20104;-44
2023/01/12 07:13:41;;;;;;;2.28;0.80;;;;;;;;;;5060690;28;20035;-43
2023/01/12 07:16:08;;;;;;;2.92;1.10;;;;;;;;;;5060816;28;20025;-44
2023/01/12 07:18:34;;;;;;;5.38;1.30;;;;;;;;;;5060248;28;20389;-43
2023/01/12 07:21:03;;;;;;;2.75;0.60;;;;;;;;;;5065587;28;20070;-43
2023/01/12 07:23:29;;;;;;;2.38;0.68;;;;;;;;;;5060240;28;20041;-43
2023/01/12 07:25:56;;;;;;;2.40;1.15;;;;;;;;;;5060678;28;20092;-44
2023/01/12 07:28:22;;;;;;;3.83;0.95;;;;;;;;;;5058796;28;20082;-42
2023/01/12 07:30:48;;;;;;;2.30;1.02;;;;;;;;;;5057416;28;20409;-44
2023/01/12 07:33:15;;;;;;;2.58;0.88;;;;;;;;;;5056578;28;20092;-46
2023/01/12 07:35:41;;;;;;;3.85;0.90;;;;;;;;;;5057721;28;20504;-42
2023/01/12 07:38:08;;;;;;;3.20;1.17;;;;;;;;;;5054733;28;20021;-44
2023/01/12 07:40:34;;;;;;;1.60;0.73;;;;;;;;;;5047015;28;20036;-43
2023/01/12 07:43:01;;;;;;;2.67;1.00;;;;;;;;;;5051708;28;20036;-42
2023/01/12 07:45:27;;;;;;;4.13;1.58;;;;;;;;;;5052860;28;20032;-42
2023/01/12 07:47:53;;;;;;;3.13;0.80;;;;;;;;;;5050299;28;20021;-42
2023/01/12 07:50:24;;;;;;;2.08;0.77;;;;;;;;;;5048471;28;20363;-42
2023/01/12 07:52:50;;;;;;;7.18;1.58;;;;;;;;;;5047585;28;20032;-43
2023/01/12 07:55:18;;;;;;;6.88;0.90;;;;;;;;;;5049844;28;20385;-43
2023/01/12 07:57:44;;;;;;;4.88;1.23;;;;;;;;;;5026293;28;20037;-43
2023/01/12 08:00:10;;;;;;;9.40;2.00;;;;;;;;;;5048358;28;20063;-43
2023/01/12 08:02:37;;;;;;;6.75;2.00;;;;;;;;;;5052710;28;20032;-43
2023/01/12 08:05:03;;;;;;;8.82;1.20;;;;;;;;;;5047831;28;20032;-43
2023/01/12 08:07:31;;;;;;;5.20;1.65;;;;;;;;;;5051642;28;20033;-42
2023/01/12 08:09:57;;;;;;;5.05;1.60;;;;;;;;;;5050847;28;20033;-43
2023/01/12 08:12:23;;;;;;;4.25;1.50;;;;;;;;;;5044449;28;20036;-42
2023/01/12 08:14:49;;;;;;;2.78;1.17;;;;;;;;;;5048523;28;20052;-43
2023/01/12 08:17:18;;;;;;;3.55;1.48;;;;;;;;;;5047515;28;20013;-43
2023/01/12 08:19:53;;;;;;;6.20;1.33;;;;;;;;;;5045897;28;20028;-43
2023/01/12 08:22:21;;;;;;;2.65;1.00;;;;;;;;;;5055430;28;20032;-43
2023/01/12 08:24:53;;;;;;;4.00;1.30;;;;;;;;;;5046825;28;20052;-43
2023/01/12 08:27:19;;;;;;;;;;;;;;;;;;5029031;28;20017;-43
2023/01/12 08:29:48;;;;;;;2.45;1.10;;;;;;;;;;5044507;28;19904;-42
2023/01/12 08:32:17;;;;;;;1.88;1.10;;;;;;;;;;5046409;28;20370;-45
2023/01/12 08:34:44;;;;;;;4.07;0.98;;;;;;;;;;5042176;28;20017;-43
2023/01/12 08:37:12;;;;;;;3.42;1.33;;;;;;;;;;5043885;28;20083;-44
2023/01/12 08:39:38;;;;;;;3.28;1.65;;;;;;;;;;5041355;28;20413;-42
2023/01/12 08:42:04;;;;;;;3.83;1.10;;;;;;;;;;5044633;28;20105;-43
2023/01/12 08:44:34;;;;;;;5.50;1.13;;;;;;;;;;5047722;28;20087;-43
2023/01/12 08:47:01;;;;;;;1.30;0.80;;;;;;;;;;5048436;28;20025;-47
2023/01/12 08:49:28;;;;;;;2.25;1.20;;;;;;;;;;5041238;28;20025;-43
2023/01/12 08:51:54;;;;;;;3.35;1.30;;;;;;;;;;5043169;28;20017;-45
2023/01/12 08:54:20;;;;;;;2.85;1.23;;;;;;;;;;5042039;28;20105;-43
2023/01/12 08:56:48;;;;;;;3.22;1.10;;;;;;;;;;5049437;28;20021;-43
2023/01/12 08:59:15;;;;;;;3.00;1.05;;;;;;;;;;5049917;28;20034;-43
2023/01/12 09:01:41;;;;;;;4.00;1.08;;;;;;;;;;5046173;28;20079;-43
2023/01/12 09:04:07;;;;;;;2.45;0.98;;;;;;;;;;5041090;28;20377;-44
2023/01/12 09:06:38;;;;;;;3.10;1.90;;;;;;;;;;5046305;28;20369;-43
2023/01/12 09:09:05;;;;;;;3.45;1.27;;;;;;;;;;5043897;28;20553;-44
2023/01/12 09:11:32;;;;;;;2.88;1.20;;;;;;;;;;5042481;28;20033;-44
2023/01/12 09:13:58;;;;;;;3.47;1.00;;;;;;;;;;5046492;28;20078;-43
2023/01/12 09:16:26;;;;;;;4.53;0.98;;;;;;;;;;5041805;28;20132;-43
2023/01/12 09:18:52;;;;;;;3.75;1.02;;;;;;;;;;5045734;28;20027;-43
2023/01/12 09:21:20;;;;;;;3.05;0.80;;;;;;;;;;5041612;28;20389;-43
2023/01/12 09:23:48;;;;;;;3.20;1.10;;;;;;;;;;5052390;28;20025;-45
2023/01/12 09:26:16;;;;;;;2.03;0.95;;;;;;;;;;5054068;28;20028;-42
2023/01/12 09:28:43;;;;;;;2.80;1.52;;;;;;;;;;5042408;28;20032;-43
2023/01/12 09:31:13;;;;;;;5.75;1.08;;;;;;;;;;5046790;28;20031;-43
2023/01/12 09:33:40;;;;;;;16.45;1.35;;;;;;;;;;5042087;28;20104;-43
2023/01/12 09:36:07;;;;;;;2.47;0.82;;;;;;;;;;5047822;28;20022;-43
2023/01/12 09:38:37;;;;;;;2.97;0.90;;;;;;;;;;5044279;28;20398;-43
2023/01/12 09:41:09;;;;;;;2.70;1.05;;;;;;;;;;5047918;28;20036;-43
2023/01/12 09:49:26;;;;;;;5.20;1.75;;;;;;;;;;5056861;28;20020;-43
2023/01/12 09:52:02;;;;;;;2.42;1.25;;;;;;;;;;5056792;28;20195;-42
2023/01/12 09:54:28;;;;;;;2.83;0.93;;;;;;;;;;5050930;28;20064;-43
2023/01/12 09:56:58;;;;;;;4.30;0.80;;;;;;;;;;5057673;28;20045;-43
2023/01/12 09:59:40;;;;;;;2.30;0.90;;;;;;;;;;5062842;28;20031;-41
2023/01/12 10:02:09;;;;;;;4.93;0.90;;;;;;;;;;5047728;28;20014;-42
2023/01/12 10:04:36;;;;;;;3.00;0.85;;;;;;;;;;5047015;28;20068;-51
2023/01/12 10:07:02;;;;;;;3.40;0.90;;;;;;;;;;5052064;28;20056;-43
2023/01/12 10:09:28;;;;;;;7.60;0.93;;;;;;;;;;5054139;28;20044;-44
2023/01/12 10:11:54;;;;;;;2.95;1.10;;;;;;;;;;5049964;28;20481;-43
2023/01/12 10:14:28;;;;;;;3.53;1.13;;;;;;;;;;5051992;28;20045;-45
2023/01/12 10:17:06;;;;;;;4.43;1.05;;;;;;;;;;5052623;28;20045;-43
2023/01/12 10:19:39;;;;;;;3.13;0.93;;;;;;;;;;5049613;28;20025;-44
2023/01/12 10:22:14;;;;;;;3.63;0.90;;;;;;;;;;5063372;28;20078;-44
2023/01/12 10:24:41;;;;;;;2.08;1.05;;;;;;;;;;5053577;28;20048;-43
2023/01/12 10:27:10;;;;;;;2.47;1.08;;;;;;;;;;5059419;28;20028;-45
2023/01/12 10:29:36;;;;;;;5.57;0.90;;;;;;;;;;5051244;28;20492;-43
2023/01/12 10:32:02;;;;;;;3.80;0.85;;;;;;;;;;5052709;28;20021;-44
2023/01/12 10:34:29;;;;;;;2.03;0.80;;;;;;;;;;5050692;28;20465;-44
2023/01/12 10:37:03;;;;;;;2.13;1.00;;;;;;;;;;5052196;28;20047;-47
2023/01/12 10:39:33;;;;;;;2.42;0.70;;;;;;;;;;5050740;28;20029;-45
2023/01/12 10:45:17;;;;;;;2.53;0.68;;;;;;;;;;5051785;28;20114;-43
2023/01/12 10:47:43;;;;;;;2.03;0.60;;;;;;;;;;5051674;28;20025;-43
2023/01/12 10:50:19;;;;;;;2.67;1.10;;;;;;;;;;5051715;28;20377;-44
2023/01/12 10:52:45;;;;;;;2.60;0.77;;;;;;;;;;5051743;28;20071;-43
2023/01/12 10:55:18;;;;;;;2.92;1.13;;;;;;;;;;5033863;28;20025;-46
2023/01/12 10:57:45;;;;;;;2.63;0.90;;;;;;;;;;5039265;28;20473;-44
2023/01/12 11:00:18;;;;;;;1.40;0.73;;;;;;;;;;5053430;28;20057;-44
2023/01/12 11:02:44;;;;;;;1.85;0.82;;;;;;;;;;5040916;28;20373;-43
2023/01/12 11:05:30;;;;;;;2.88;0.93;;;;;;;;;;5053606;28;20049;-44
2023/01/12 11:07:56;;;;;;;1.63;0.82;;;;;;;;;;5059555;28;20028;-43
2023/01/12 11:10:30;;;;;;;4.25;1.42;;;;;;;;;;5054961;28;20417;-44
2023/01/12 11:13:02;;;;;;;4.47;0.82;;;;;;;;;;5063655;28;20028;-44
2023/01/12 11:15:29;;;;;;;1.15;0.65;;;;;;;;;;5054238;28;20481;-44
2023/01/12 11:17:55;;;;;;;2.47;0.70;;;;;;;;;;5052953;28;20208;-43
2023/01/12 11:20:40;;;;;;;1.15;0.60;;;;;;;;;;5060667;28;20020;-44
2023/01/12 11:23:38;;;;;;;1.23;0.80;;;;;;;;;;5060368;28;20055;-44
2023/01/12 11:26:12;;;;;;;3.58;0.88;;;;;;;;;;5003682;28;20044;-43
2023/01/12 11:28:42;;;;;;;8.35;0.90;;;;;;;;;;5063122;28;20041;-44
2023/01/12 11:31:16;;;;;;;4.22;1.88;;;;;;;;;;5038577;28;20342;-44
2023/01/12 11:33:44;;;;;;;5.05;1.90;;;;;;;;;;5053207;28;20044;-46
2023/01/12 11:36:22;;;;;;;5.55;1.80;;;;;;;;;;5067834;28;20361;-45
2023/01/12 11:38:53;;;;;;;8.25;1.85;;;;;;;;;;5057432;28;20522;-44
2023/01/12 11:41:21;;;;;;;8.10;1.80;;;;;;;;;;5040833;28;20025;-44
2023/01/12 11:44:06;;;;;;;12.30;2.90;;;;;;;;;;5048929;28;20381;-44
2023/01/12 11:46:34;;;;;;;10.52;2.38;;;;;;;;;;5032469;28;20569;-44
2023/01/12 11:49:19;;;;;;;13.85;3.25;;;;;;;;;;5050696;28;20542;-43
2023/01/12 11:51:47;;;;;;;4.60;1.90;;;;;;;;;;5049665;28;20061;-43
2023/01/12 11:54:15;;;;;;;7.70;2.00;;;;;;;;;;5050105;28;20029;-43
2023/01/12 11:56:53;;;;;;;7.68;2.00;;;;;;;;;;5049160;28;20612;-44
2023/01/12 11:59:35;;;;;;;8.15;2.30;;;;;;;;;;5050041;28;20094;-48
2023/01/12 12:02:10;;;;;;;5.90;1.80;;;;;;;;;;5049988;28;20025;-44
2023/01/12 12:04:54;;;;;;;4.22;1.60;;;;;;;;;;5048891;28;20032;-43
2023/01/12 12:07:20;;;;;;;8.43;2.65;;;;;;;;;;5050202;28;20037;-43
2023/01/12 12:10:04;;;;;;;7.35;2.15;;;;;;;;;;5048666;28;20048;-44
2023/01/12 12:12:42;;;;;;;7.13;2.15;;;;;;;;;;5049377;28;20041;-44
2023/01/12 12:15:25;;;;;;;4.60;1.90;;;;;;;;;;5049029;28;20068;-48
2023/01/12 12:18:14;;;;;;;7.90;2.50;;;;;;;;;;5043730;28;20551;-43
2023/01/12 12:20:46;;;;;;;4.28;2.00;;;;;;;;;;5035019;28;20056;-45
2023/01/12 12:23:19;;;;;;;13.82;1.60;;;;;;;;;;5050100;28;20028;-46
2023/01/12 12:25:48;;;;;;;3.55;1.67;;;;;;;;;;5043111;28;20021;-44
2023/01/12 12:28:20;;;;;;;5.45;1.75;;;;;;;;;;5047568;28;20466;-48
2023/01/12 12:30:46;;;;;;;;;;;;;;;;;;5047577;28;20465;-44
2023/01/12 12:33:12;;;;;;;3.67;1.23;;;;;;;;;;5049270;28;19967;-44
2023/01/12 12:35:38;;;;;;;4.88;1.98;;;;;;;;;;5049314;28;20075;-44
2023/01/12 12:38:04;;;;;;;5.47;1.55;;;;;;;;;;5031741;28;20029;-44
2023/01/12 12:46:27;;;;;;;3.67;1.30;;;;;;;;;;5049163;28;20032;-43
2023/01/12 12:49:08;;;;;;;5.25;1.63;;;;;;;;;;5046736;28;20100;-43
2023/01/12 12:51:35;;;;;;;4.85;1.20;;;;;;;;;;5049283;28;20032;-43
2023/01/12 12:54:05;;;;;;;4.63;1.40;;;;;;;;;;5049081;28;20113;-45
2023/01/12 12:56:33;;;;;;;4.47;1.45;;;;;;;;;;5049639;28;20033;-44
2023/01/12 12:59:00;;;;;;;4.15;1.30;;;;;;;;;;5051841;28;20496;-45
2023/01/12 13:01:26;;;;;;;7.05;1.20;;;;;;;;;;5053721;28;20021;-43
2023/01/12 13:03:53;;;;;;;2.40;0.80;;;;;;;;;;5052240;28;20663;-45
2023/01/12 13:06:22;;;;;;;2.30;1.00;;;;;;;;;;5052345;28;20029;-43
2023/01/12 13:08:49;;;;;;;3.20;0.82;;;;;;;;;;5052609;28;20198;-44
2023/01/12 13:11:15;;;;;;;3.22;0.90;;;;;;;;;;5053174;28;20053;-45
2023/01/12 13:14:01;;;;;;;3.97;1.10;;;;;;;;;;5051643;28;20590;-43
2023/01/12 13:16:30;;;;;;;6.28;1.17;;;;;;;;;;5052551;28;20469;-44
2023/01/12 13:18:56;;;;;;;3.88;0.88;;;;;;;;;;5040117;28;20381;-43
2023/01/12 13:21:28;;;;;;;4.60;0.80;;;;;;;;;;5052456;28;20033;-43
2023/01/12 13:24:15;;;;;;;3.75;1.13;;;;;;;;;;5050188;28;20017;-43
2023/01/12 13:26:42;;;;;;;2.15;0.90;;;;;;;;;;5052998;28;20029;-43
2023/01/12 13:29:23;;;;;;;2.92;1.00;;;;;;;;;;5052950;28;20075;-45
2023/01/12 13:31:50;;;;;;;1.50;0.73;;;;;;;;;;5052903;28;20043;-42
2023/01/12 13:34:41;;;;;;;4.22;1.00;;;;;;;;;;5052097;28;20489;-43
2023/01/12 13:37:22;;;;;;;1.88;0.95;;;;;;;;;;5042034;28;20523;-44
2023/01/12 13:39:55;;;;;;;1.50;0.90;;;;;;;;;;5051416;28;20025;-44
2023/01/12 13:45:10;;;;;;;2.28;0.85;;;;;;;;;;5048744;28;20397;-43
2023/01/12 13:47:37;;;;;;;3.25;0.77;;;;;;;;;;5043567;28;20033;-43
2023/01/12 13:50:03;;;;;;;2.55;0.80;;;;;;;;;;5062191;28;20016;-43
2023/01/12 13:52:29;;;;;;;3.33;1.05;;;;;;;;;;5068485;28;20499;-43
2023/01/12 13:54:56;;;;;;;3.15;0.80;;;;;;;;;;5050728;28;20029;-43
2023/01/12 13:57:24;;;;;;;2.22;0.60;;;;;;;;;;5066623;28;20025;-43
2023/01/12 14:00:09;;;;;;;3.45;0.75;;;;;;;;;;5056272;28;20484;-42
2023/01/12 14:02:36;;;;;;;4.57;0.82;;;;;;;;;;5060827;28;20090;-44
2023/01/12 14:05:11;;;;;;;4.97;0.75;;;;;;;;;;5059211;28;20033;-43
2023/01/12 14:07:49;;;;;;;4.43;1.30;;;;;;;;;;5051609;28;20029;-42
2023/01/12 14:10:21;;;;;;;5.65;0.73;;;;;;;;;;5051776;28;20087;-44
2023/01/12 14:12:56;;;;;;;2.92;0.77;;;;;;;;;;5052296;28;20021;-42
2023/01/12 14:18:17;;;;;;;1.67;0.93;;;;;;;;;;5049283;28;20078;-42
2023/01/12 14:20:47;;;;;;;4.45;1.25;;;;;;;;;;5051080;28;20078;-45
2023/01/12 14:23:15;;;;;;;2.15;0.60;;;;;;;;;;5052251;28;20370;-43
2023/01/12 14:25:42;;;;;;;1.13;0.70;;;;;;;;;;5050264;28;20493;-43
2023/01/12 14:28:18;;;;;;;1.85;0.95;;;;;;;;;;5050676;28;20223;-43
2023/01/12 14:30:51;;;;;;;2.45;1.25;;;;;;;;;;5050603;28;20477;-44
2023/01/12 14:33:19;;;;;;;1.58;0.52;;;;;;;;;;5052413;28;20029;-45
2023/01/12 14:35:46;;;;;;;3.78;0.82;;;;;;;;;;5054027;28;20029;-42
2023/01/12 14:38:13;;;;;;;1.63;0.82;;;;;;;;;;5050944;28;20035;-43
2023/01/12 14:40:39;;;;;;;2.20;0.73;;;;;;;;;;5050964;28;20048;-43
2023/01/12 14:48:42;;;;;;;3.00;0.80;;;;;;;;;;5050128;28;20130;-43
2023/01/12 14:51:36;;;;;;;2.65;0.80;;;;;;;;;;5033515;28;20025;-43
2023/01/12 14:54:08;;;;;;;2.25;0.90;;;;;;;;;;5050298;28;20033;-43
2023/01/12 14:56:40;;;;;;;1.38;0.63;;;;;;;;;;5050464;28;20024;-44
2023/01/12 14:59:18;;;;;;;1.38;0.82;;;;;;;;;;5050575;28;20029;-44
2023/01/12 15:01:44;;;;;;;1.05;0.40;;;;;;;;;;5050760;28;20025;-43
2023/01/12 15:04:16;;;;;;;1.77;0.65;;;;;;;;;;5050894;28;20037;-43
2023/01/12 15:06:42;;;;;;;2.20;0.50;;;;;;;;;;5050383;28;20587;-43
2023/01/12 15:09:23;;;;;;;6.13;0.95;;;;;;;;;;5049819;28;20031;-43
2023/01/12 15:11:49;;;;;;;1.30;0.65;;;;;;;;;;5050528;28;20063;-43
2023/01/12 15:14:20;;;;;;;9.35;0.80;;;;;;;;;;5044622;28;20068;-42
2023/01/12 15:27:46;;;;;;;5.47;0.57;;;;;;;;;;5051205;28;20075;-43
2023/01/12 15:30:12;;;;;;;1.85;0.57;;;;;;;;;;5050691;28;20029;-43
2023/01/12 15:32:42;;;;;;;2.40;0.70;;;;;;;;;;5050740;28;20127;-43
2023/01/12 15:35:25;;;;;;;2.83;0.70;;;;;;;;;;5051020;28;20028;-43
2023/01/12 15:37:52;;;;;;;2.72;0.60;;;;;;;;;;5050200;28;20025;-43
2023/01/12 15:40:18;;;;;;;1.52;0.70;;;;;;;;;;5050650;28;20378;-44
2023/01/12 15:42:45;;;;;;;2.83;0.60;;;;;;;;;;5050729;28;20030;-43
2023/01/12 15:45:18;;;;;;;1.70;0.80;;;;;;;;;;5050556;28;20078;-44
2023/01/12 15:47:44;;;;;;;0.88;0.50;;;;;;;;;;5050216;28;20510;-43
2023/01/12 15:50:10;;;;;;;2.00;0.70;;;;;;;;;;5050549;28;20033;-43
2023/01/12 15:52:36;;;;;;;2.17;0.77;;;;;;;;;;5050564;28;20501;-44
2023/01/12 15:55:04;;;;;;;4.93;0.75;;;;;;;;;;5050171;28;20047;-44
2023/01/12 15:57:30;;;;;;;3.15;0.50;;;;;;;;;;5051074;28;20427;-42
2023/01/12 15:59:56;;;;;;;2.83;0.65;;;;;;;;;;5054670;28;20794;-43